sensor_id;sensor_type;location;lat;lon;timestamp;pressure;altitude;pressure_sealevel;temperature;humidity
74798;BME280;63326;45.088;7.658;2023-09-18T00:01:20;98940.09;;;18.72;100.00
74798;BME280;63326;45.088;7.658;2023-09-18T00:03:47;98970.09;;;18.95;100.00
74798;BME280;63326;45.088;7.658;2023-09-18T00:06:15;98941.97;;;18.60;100.00
74798;BME280;63326;45.088;7.658;2023-09-18T00:08:42;98942.16;;;18.46;100.00
74798;BME280;63326;45.088;7.658;2023-09-18T00:11:09;98960.78;;;18.61;100.00
74798;BME280;63326;45.088;7.658;2023-09-18T00:13:38;98955.91;;;18.51;100.00
74798;BME280;63326;45.088;7.658;2023-09-18T00:16:05;98901.66;;;18.15;100.00
74798;BME280;63326;45.088;7.658;2023-09-18T00:18:33;98960.50;;;18.51;100.00
74798;BME280;63326;45.088;7.658;2023-09-18T00:21:00;98938.81;;;18.33;100.00
74798;BME280;63326;45.088;7.658;2023-09-18T00:23:27;98950.41;;;18.40;100.00
74798;BME280;63326;45.088;7.658;2023-09-18T00:25:54;98921.63;;;18.20;100.00
74798;BME280;63326;45.088;7.658;2023-09-18T00:28:22;98932.81;;;18.42;100.00
74798;BME280;63326;45.088;7.658;2023-09-18T00:30:49;98952.03;;;18.59;100.00
74798;BME280;63326;45.088;7.658;2023-09-18T00:33:17;98932.47;;;18.50;100.00
74798;BME280;63326;45.088;7.658;2023-09-18T00:35:48;98943.78;;;18.66;100.00
74798;BME280;63326;45.088;7.658;2023-09-18T00:38:15;98923.88;;;18.53;100.00
74798;BME280;63326;45.088;7.658;2023-09-18T00:40:43;98905.69;;;18.66;100.00
74798;BME280;63326;45.088;7.658;2023-09-18T00:43:10;98918.56;;;18.70;100.00
74798;BME280;63326;45.088;7.658;2023-09-18T00:45:40;98931.25;;;18.65;100.00
74798;BME280;63326;45.088;7.658;2023-09-18T00:48:09;98901.00;;;18.31;100.00
74798;BME280;63326;45.088;7.658;2023-09-18T00:50:37;98934.84;;;18.47;100.00
74798;BME280;63326;45.088;7.658;2023-09-18T00:53:07;98908.41;;;18.24;100.00
74798;BME280;63326;45.088;7.658;2023-09-18T00:55:36;98893.03;;;18.18;100.00
74798;BME280;63326;45.088;7.658;2023-09-18T00:58:07;98933.03;;;18.41;100.00
74798;BME280;63326;45.088;7.658;2023-09-18T01:00:34;98881.66;;;18.09;100.00
74798;BME280;63326;45.088;7.658;2023-09-18T01:03:02;98907.34;;;18.25;100.00
74798;BME280;63326;45.088;7.658;2023-09-18T01:05:32;98922.13;;;18.29;100.00
74798;BME280;63326;45.088;7.658;2023-09-18T01:08:00;98903.44;;;18.21;100.00
74798;BME280;63326;45.088;7.658;2023-09-18T01:10:35;98923.34;;;18.33;100.00
74798;BME280;63326;45.088;7.658;2023-09-18T01:13:12;98903.06;;;18.17;100.00
74798;BME280;63326;45.088;7.658;2023-09-18T01:15:48;98896.34;;;18.20;100.00
74798;BME280;63326;45.088;7.658;2023-09-18T01:18:18;98865.22;;;18.04;100.00
74798;BME280;63326;45.088;7.658;2023-09-18T01:20:46;98871.28;;;18.18;100.00
74798;BME280;63326;45.088;7.658;2023-09-18T01:23:13;98834.50;;;18.04;100.00
74798;BME280;63326;45.088;7.658;2023-09-18T01:25:40;98801.88;;;17.92;100.00
74798;BME280;63326;45.088;7.658;2023-09-18T01:28:08;98823.38;;;17.93;100.00
74798;BME280;63326;45.088;7.658;2023-09-18T01:30:35;98836.50;;;17.96;100.00
74798;BME280;63326;45.088;7.658;2023-09-18T01:33:03;98868.78;;;18.16;100.00
74798;BME280;63326;45.088;7.658;2023-09-18T01:35:31;98868.47;;;18.24;100.00
74798;BME280;63326;45.088;7.658;2023-09-18T01:38:03;98824.31;;;17.99;100.00
74798;BME280;63326;45.088;7.658;2023-09-18T01:40:31;98860.06;;;18.26;100.00
74798;BME280;63326;45.088;7.658;2023-09-18T01:42:58;98872.38;;;18.28;100.00
74798;BME280;63326;45.088;7.658;2023-09-18T01:45:26;98865.28;;;18.27;100.00
74798;BME280;63326;45.088;7.658;2023-09-18T01:47:53;98868.38;;;18.31;100.00
74798;BME280;63326;45.088;7.658;2023-09-18T01:50:20;98800.94;;;17.98;100.00
74798;BME280;63326;45.088;7.658;2023-09-18T01:52:47;98820.69;;;18.05;100.00
74798;BME280;63326;45.088;7.658;2023-09-18T01:55:15;98808.84;;;17.99;100.00
74798;BME280;63326;45.088;7.658;2023-09-18T01:57:42;98808.00;;;17.99;100.00
74798;BME280;63326;45.088;7.658;2023-09-18T02:00:10;98851.56;;;18.22;100.00
74798;BME280;63326;45.088;7.658;2023-09-18T02:02:39;98827.19;;;18.04;100.00
74798;BME280;63326;45.088;7.658;2023-09-18T02:05:24;98828.47;;;18.02;100.00
74798;BME280;63326;45.088;7.658;2023-09-18T02:07:52;98854.34;;;18.04;100.00
74798;BME280;63326;45.088;7.658;2023-09-18T02:10:19;98832.63;;;18.04;100.00
74798;BME280;63326;45.088;7.658;2023-09-18T02:12:47;98845.50;;;18.20;100.00
74798;BME280;63326;45.088;7.658;2023-09-18T02:15:14;98843.50;;;18.16;100.00
74798;BME280;63326;45.088;7.658;2023-09-18T02:17:43;98830.63;;;18.11;100.00
74798;BME280;63326;45.088;7.658;2023-09-18T02:20:13;98822.94;;;18.08;100.00
74798;BME280;63326;45.088;7.658;2023-09-18T02:22:40;98851.00;;;18.32;100.00
74798;BME280;63326;45.088;7.658;2023-09-18T02:25:08;98833.47;;;18.16;100.00
74798;BME280;63326;45.088;7.658;2023-09-18T02:27:35;98832.66;;;18.27;100.00
74798;BME280;63326;45.088;7.658;2023-09-18T02:30:03;98804.16;;;18.18;100.00
74798;BME280;63326;45.088;7.658;2023-09-18T02:32:30;98792.34;;;18.01;100.00
74798;BME280;63326;45.088;7.658;2023-09-18T02:34:58;98836.94;;;18.35;100.00
74798;BME280;63326;45.088;7.658;2023-09-18T02:37:25;98837.03;;;18.28;100.00
74798;BME280;63326;45.088;7.658;2023-09-18T02:39:53;98812.53;;;18.05;100.00
74798;BME280;63326;45.088;7.658;2023-09-18T02:42:20;98817.13;;;18.05;100.00
74798;BME280;63326;45.088;7.658;2023-09-18T02:44:47;98838.56;;;18.24;100.00
74798;BME280;63326;45.088;7.658;2023-09-18T02:47:14;98826.72;;;18.19;100.00
74798;BME280;63326;45.088;7.658;2023-09-18T02:49:42;98821.19;;;18.14;100.00
74798;BME280;63326;45.088;7.658;2023-09-18T02:52:09;98791.50;;;18.01;100.00
74798;BME280;63326;45.088;7.658;2023-09-18T02:54:36;98835.72;;;18.19;100.00
74798;BME280;63326;45.088;7.658;2023-09-18T02:57:04;98827.78;;;18.18;100.00
74798;BME280;63326;45.088;7.658;2023-09-18T02:59:31;98818.94;;;18.22;100.00
74798;BME280;63326;45.088;7.658;2023-09-18T03:01:59;98815.84;;;18.19;100.00
74798;BME280;63326;45.088;7.658;2023-09-18T03:04:26;98834.69;;;18.32;100.00
74798;BME280;63326;45.088;7.658;2023-09-18T03:06:54;98820.38;;;18.25;100.00
74798;BME280;63326;45.088;7.658;2023-09-18T03:09:21;98798.47;;;18.08;100.00
74798;BME280;63326;45.088;7.658;2023-09-18T03:11:49;98824.25;;;18.29;100.00
74798;BME280;63326;45.088;7.658;2023-09-18T03:14:16;98805.72;;;18.26;100.00
74798;BME280;63326;45.088;7.658;2023-09-18T03:16:43;98808.19;;;18.16;100.00
74798;BME280;63326;45.088;7.658;2023-09-18T03:19:11;98793.75;;;18.04;100.00
74798;BME280;63326;45.088;7.658;2023-09-18T03:21:38;98814.53;;;18.10;100.00
74798;BME280;63326;45.088;7.658;2023-09-18T03:24:06;98788.88;;;17.94;100.00
74798;BME280;63326;45.088;7.658;2023-09-18T03:26:34;98788.72;;;17.89;100.00
74798;BME280;63326;45.088;7.658;2023-09-18T03:29:02;98786.41;;;17.92;100.00
74798;BME280;63326;45.088;7.658;2023-09-18T03:31:29;98802.50;;;18.06;100.00
74798;BME280;63326;45.088;7.658;2023-09-18T03:33:57;98804.63;;;18.04;100.00
74798;BME280;63326;45.088;7.658;2023-09-18T03:36:25;98792.19;;;17.96;100.00
74798;BME280;63326;45.088;7.658;2023-09-18T03:38:53;98798.81;;;18.00;100.00
74798;BME280;63326;45.088;7.658;2023-09-18T03:41:21;98790.22;;;18.03;100.00
74798;BME280;63326;45.088;7.658;2023-09-18T03:43:48;98778.28;;;18.04;100.00
74798;BME280;63326;45.088;7.658;2023-09-18T03:46:16;98793.28;;;18.18;100.00
74798;BME280;63326;45.088;7.658;2023-09-18T03:48:47;98781.47;;;18.13;100.00
74798;BME280;63326;45.088;7.658;2023-09-18T03:51:15;98799.22;;;18.27;100.00
74798;BME280;63326;45.088;7.658;2023-09-18T03:53:43;98752.97;;;17.92;100.00
74798;BME280;63326;45.088;7.658;2023-09-18T03:56:10;98800.50;;;18.24;100.00
74798;BME280;63326;45.088;7.658;2023-09-18T03:58:37;98770.94;;;18.16;100.00
74798;BME280;63326;45.088;7.658;2023-09-18T04:01:05;98791.53;;;18.36;100.00
74798;BME280;63326;45.088;7.658;2023-09-18T04:03:32;98763.97;;;18.20;100.00
74798;BME280;63326;45.088;7.658;2023-09-18T04:06:00;98781.72;;;18.23;100.00
74798;BME280;63326;45.088;7.658;2023-09-18T04:08:29;98752.03;;;17.98;100.00
74798;BME280;63326;45.088;7.658;2023-09-18T04:10:59;98720.56;;;17.79;100.00
74798;BME280;63326;45.088;7.658;2023-09-18T04:13:26;98768.38;;;18.21;100.00
74798;BME280;63326;45.088;7.658;2023-09-18T04:15:54;98777.81;;;18.19;100.00
74798;BME280;63326;45.088;7.658;2023-09-18T04:18:21;98780.06;;;18.22;100.00
74798;BME280;63326;45.088;7.658;2023-09-18T04:20:49;98731.69;;;17.89;100.00
74798;BME280;63326;45.088;7.658;2023-09-18T04:23:25;98777.47;;;18.15;100.00
74798;BME280;63326;45.088;7.658;2023-09-18T04:25:54;98776.28;;;18.23;100.00
74798;BME280;63326;45.088;7.658;2023-09-18T04:28:22;98747.56;;;18.04;100.00
74798;BME280;63326;45.088;7.658;2023-09-18T04:30:50;98753.59;;;18.17;100.00
74798;BME280;63326;45.088;7.658;2023-09-18T04:33:19;98749.56;;;18.20;100.00
74798;BME280;63326;45.088;7.658;2023-09-18T04:35:49;98764.47;;;18.29;100.00
74798;BME280;63326;45.088;7.658;2023-09-18T04:38:16;98745.19;;;18.07;100.00
74798;BME280;63326;45.088;7.658;2023-09-18T04:40:46;98728.16;;;17.88;100.00
74798;BME280;63326;45.088;7.658;2023-09-18T04:43:14;98759.00;;;18.17;100.00
74798;BME280;63326;45.088;7.658;2023-09-18T04:45:43;98748.63;;;18.03;100.00
74798;BME280;63326;45.088;7.658;2023-09-18T04:48:12;98709.50;;;17.80;100.00
74798;BME280;63326;45.088;7.658;2023-09-18T04:50:39;98735.28;;;18.13;100.00
74798;BME280;63326;45.088;7.658;2023-09-18T04:53:07;98729.13;;;18.17;100.00
74798;BME280;63326;45.088;7.658;2023-09-18T04:55:35;98733.13;;;18.03;100.00
74798;BME280;63326;45.088;7.658;2023-09-18T04:58:05;98695.53;;;17.88;100.00
74798;BME280;63326;45.088;7.658;2023-09-18T05:00:33;98720.72;;;17.95;100.00
74798;BME280;63326;45.088;7.658;2023-09-18T05:03:01;98715.75;;;17.92;100.00
74798;BME280;63326;45.088;7.658;2023-09-18T05:05:30;98726.03;;;17.90;100.00
74798;BME280;63326;45.088;7.658;2023-09-18T05:07:58;98700.50;;;17.80;100.00
74798;BME280;63326;45.088;7.658;2023-09-18T05:10:25;98731.94;;;17.99;100.00
74798;BME280;63326;45.088;7.658;2023-09-18T05:12:53;98730.28;;;17.98;100.00
74798;BME280;63326;45.088;7.658;2023-09-18T05:15:26;98707.97;;;17.96;100.00
74798;BME280;63326;45.088;7.658;2023-09-18T05:17:53;98691.19;;;17.87;100.00
74798;BME280;63326;45.088;7.658;2023-09-18T05:20:25;98716.50;;;18.11;100.00
74798;BME280;63326;45.088;7.658;2023-09-18T05:22:54;98714.81;;;18.10;100.00
74798;BME280;63326;45.088;7.658;2023-09-18T05:25:22;98698.06;;;18.02;100.00
74798;BME280;63326;45.088;7.658;2023-09-18T05:27:52;98677.38;;;18.01;100.00
74798;BME280;63326;45.088;7.658;2023-09-18T05:30:31;98691.53;;;18.26;100.00
74798;BME280;63326;45.088;7.658;2023-09-18T05:33:01;98678.28;;;18.29;100.00
74798;BME280;63326;45.088;7.658;2023-09-18T05:35:42;98672.84;;;18.29;100.00
74798;BME280;63326;45.088;7.658;2023-09-18T05:38:14;98674.72;;;18.41;100.00
74798;BME280;63326;45.088;7.658;2023-09-18T05:40:41;98670.59;;;18.50;100.00
74798;BME280;63326;45.088;7.658;2023-09-18T05:43:08;98661.50;;;18.56;100.00
74798;BME280;63326;45.088;7.658;2023-09-18T05:45:37;98640.66;;;18.50;100.00
74798;BME280;63326;45.088;7.658;2023-09-18T05:48:05;98622.38;;;18.45;100.00
74798;BME280;63326;45.088;7.658;2023-09-18T05:50:34;98662.72;;;18.89;100.00
74798;BME280;63326;45.088;7.658;2023-09-18T05:53:04;98659.16;;;18.88;100.00
74798;BME280;63326;45.088;7.658;2023-09-18T05:55:33;98658.03;;;19.01;100.00
74798;BME280;63326;45.088;7.658;2023-09-18T05:58:01;98666.16;;;19.12;100.00
74798;BME280;63326;45.088;7.658;2023-09-18T06:00:31;98646.13;;;19.19;100.00
74798;BME280;63326;45.088;7.658;2023-09-18T06:02:59;98646.38;;;18.89;100.00
74798;BME280;63326;45.088;7.658;2023-09-18T06:05:27;98652.03;;;18.99;100.00
74798;BME280;63326;45.088;7.658;2023-09-18T06:07:54;98647.97;;;19.13;100.00
74798;BME280;63326;45.088;7.658;2023-09-18T06:10:21;98621.13;;;19.22;100.00
74798;BME280;63326;45.088;7.658;2023-09-18T06:12:49;98671.06;;;19.73;100.00
74798;BME280;63326;45.088;7.658;2023-09-18T06:15:16;98635.63;;;19.73;100.00
74798;BME280;63326;45.088;7.658;2023-09-18T06:17:44;98634.91;;;19.60;100.00
74798;BME280;63326;45.088;7.658;2023-09-18T06:20:12;98585.47;;;19.52;100.00
74798;BME280;63326;45.088;7.658;2023-09-18T06:22:40;98621.63;;;19.64;100.00
74798;BME280;63326;45.088;7.658;2023-09-18T06:25:08;98594.47;;;19.52;100.00
74798;BME280;63326;45.088;7.658;2023-09-18T06:27:38;98634.31;;;19.92;100.00
74798;BME280;63326;45.088;7.658;2023-09-18T06:30:06;98604.59;;;19.74;100.00
74798;BME280;63326;45.088;7.658;2023-09-18T06:32:34;98617.59;;;19.66;100.00
74798;BME280;63326;45.088;7.658;2023-09-18T06:35:04;98603.13;;;19.49;100.00
74798;BME280;63326;45.088;7.658;2023-09-18T06:37:32;98627.31;;;19.62;100.00
74798;BME280;63326;45.088;7.658;2023-09-18T06:39:59;98634.06;;;19.43;100.00
74798;BME280;63326;45.088;7.658;2023-09-18T06:42:26;98605.94;;;19.09;100.00
74798;BME280;63326;45.088;7.658;2023-09-18T06:44:58;98603.16;;;19.04;100.00
74798;BME280;63326;45.088;7.658;2023-09-18T06:47:25;98566.22;;;18.79;100.00
74798;BME280;63326;45.088;7.658;2023-09-18T06:49:53;98592.09;;;18.94;100.00
74798;BME280;63326;45.088;7.658;2023-09-18T06:52:21;98609.94;;;19.18;100.00
74798;BME280;63326;45.088;7.658;2023-09-18T06:54:48;98615.16;;;19.36;100.00
74798;BME280;63326;45.088;7.658;2023-09-18T06:57:15;98631.47;;;19.65;100.00
74798;BME280;63326;45.088;7.658;2023-09-18T06:59:43;98648.09;;;19.52;100.00
74798;BME280;63326;45.088;7.658;2023-09-18T07:02:10;98655.00;;;19.26;100.00
74798;BME280;63326;45.088;7.658;2023-09-18T07:04:37;98650.19;;;18.88;100.00
74798;BME280;63326;45.088;7.658;2023-09-18T07:07:13;98617.63;;;18.64;100.00
74798;BME280;63326;45.088;7.658;2023-09-18T07:09:41;98600.38;;;18.47;100.00
74798;BME280;63326;45.088;7.658;2023-09-18T07:12:28;98623.53;;;18.61;100.00
74798;BME280;63326;45.088;7.658;2023-09-18T07:14:56;98638.59;;;18.80;100.00
74798;BME280;63326;45.088;7.658;2023-09-18T07:17:23;98596.59;;;18.88;100.00
74798;BME280;63326;45.088;7.658;2023-09-18T07:19:50;98569.88;;;18.85;100.00
74798;BME280;63326;45.088;7.658;2023-09-18T07:22:18;98562.41;;;19.09;100.00
74798;BME280;63326;45.088;7.658;2023-09-18T07:24:45;98612.28;;;19.60;100.00
74798;BME280;63326;45.088;7.658;2023-09-18T07:27:13;98592.25;;;19.49;100.00
74798;BME280;63326;45.088;7.658;2023-09-18T07:29:40;98627.25;;;20.13;100.00
74798;BME280;63326;45.088;7.658;2023-09-18T07:32:07;98639.38;;;20.22;100.00
74798;BME280;63326;45.088;7.658;2023-09-18T07:34:36;98608.06;;;19.86;100.00
74798;BME280;63326;45.088;7.658;2023-09-18T07:37:04;98648.50;;;20.27;100.00
74798;BME280;63326;45.088;7.658;2023-09-18T07:39:31;98613.94;;;19.78;100.00
74798;BME280;63326;45.088;7.658;2023-09-18T07:41:59;98647.81;;;19.65;100.00
74798;BME280;63326;45.088;7.658;2023-09-18T07:44:27;98636.44;;;19.39;100.00
74798;BME280;63326;45.088;7.658;2023-09-18T07:46:54;98673.13;;;19.49;100.00
74798;BME280;63326;45.088;7.658;2023-09-18T07:49:21;98659.50;;;19.82;100.00
74798;BME280;63326;45.088;7.658;2023-09-18T07:51:51;98636.78;;;19.93;100.00
74798;BME280;63326;45.088;7.658;2023-09-18T07:54:18;98656.06;;;20.42;100.00
74798;BME280;63326;45.088;7.658;2023-09-18T07:56:46;98648.13;;;20.24;100.00
74798;BME280;63326;45.088;7.658;2023-09-18T07:59:13;98629.72;;;20.14;100.00
74798;BME280;63326;45.088;7.658;2023-09-18T08:01:41;98595.84;;;19.71;100.00
74798;BME280;63326;45.088;7.658;2023-09-18T08:04:08;98610.28;;;19.89;100.00
74798;BME280;63326;45.088;7.658;2023-09-18T08:06:36;98628.13;;;19.96;100.00
74798;BME280;63326;45.088;7.658;2023-09-18T08:09:07;98599.91;;;19.69;100.00
74798;BME280;63326;45.088;7.658;2023-09-18T08:11:37;98617.22;;;19.63;100.00
74798;BME280;63326;45.088;7.658;2023-09-18T08:14:13;98629.63;;;19.87;100.00
74798;BME280;63326;45.088;7.658;2023-09-18T08:16:40;98643.13;;;20.16;100.00
74798;BME280;63326;45.088;7.658;2023-09-18T08:19:08;98637.47;;;20.22;100.00
74798;BME280;63326;45.088;7.658;2023-09-18T08:21:36;98593.00;;;20.61;100.00
74798;BME280;63326;45.088;7.658;2023-09-18T08:24:04;98611.84;;;21.70;100.00
74798;BME280;63326;45.088;7.658;2023-09-18T08:26:31;98582.44;;;22.30;92.33
74798;BME280;63326;45.088;7.658;2023-09-18T08:28:59;98616.47;;;23.78;84.83
74798;BME280;63326;45.088;7.658;2023-09-18T08:31:26;98621.88;;;25.82;72.32
74798;BME280;63326;45.088;7.658;2023-09-18T08:33:54;98635.34;;;25.49;72.15
74798;BME280;63326;45.088;7.658;2023-09-18T08:36:21;98637.09;;;26.56;67.49
74798;BME280;63326;45.088;7.658;2023-09-18T08:38:49;98626.88;;;24.11;76.36
74798;BME280;63326;45.088;7.658;2023-09-18T08:41:18;98587.16;;;23.58;79.24
74798;BME280;63326;45.088;7.658;2023-09-18T08:43:47;98593.19;;;23.65;79.58
74798;BME280;63326;45.088;7.658;2023-09-18T08:46:16;98603.75;;;25.81;70.21
74798;BME280;63326;45.088;7.658;2023-09-18T08:48:44;98608.69;;;27.03;62.47
74798;BME280;63326;45.088;7.658;2023-09-18T08:51:13;98618.25;;;27.30;61.22
74798;BME280;63326;45.088;7.658;2023-09-18T08:53:41;98613.56;;;26.21;63.41
74798;BME280;63326;45.088;7.658;2023-09-18T08:56:08;98624.41;;;23.49;77.54
74798;BME280;63326;45.088;7.658;2023-09-18T08:58:37;98590.91;;;22.96;81.67
74798;BME280;63326;45.088;7.658;2023-09-18T09:01:07;98619.41;;;23.20;81.04
74798;BME280;63326;45.088;7.658;2023-09-18T09:03:37;98601.09;;;23.82;77.80
74798;BME280;63326;45.088;7.658;2023-09-18T09:06:06;98572.63;;;23.62;76.92
74798;BME280;63326;45.088;7.658;2023-09-18T09:08:34;98623.31;;;23.85;76.50
74798;BME280;63326;45.088;7.658;2023-09-18T09:11:02;98600.75;;;22.97;82.53
74798;BME280;63326;45.088;7.658;2023-09-18T09:13:30;98621.06;;;24.23;78.28
74798;BME280;63326;45.088;7.658;2023-09-18T09:16:11;98617.81;;;25.35;71.56
74798;BME280;63326;45.088;7.658;2023-09-18T09:18:48;98615.63;;;24.18;76.01
74798;BME280;63326;45.088;7.658;2023-09-18T09:21:17;98616.09;;;24.45;75.46
74798;BME280;63326;45.088;7.658;2023-09-18T09:23:48;98618.84;;;24.40;76.07
74798;BME280;63326;45.088;7.658;2023-09-18T09:26:19;98619.44;;;23.30;82.19
74798;BME280;63326;45.088;7.658;2023-09-18T09:28:47;98601.38;;;23.85;77.66
74798;BME280;63326;45.088;7.658;2023-09-18T09:31:30;98625.66;;;25.12;73.37
74798;BME280;63326;45.088;7.658;2023-09-18T09:33:57;98610.19;;;26.48;64.95
74798;BME280;63326;45.088;7.658;2023-09-18T09:36:26;98590.47;;;26.41;64.60
74798;BME280;63326;45.088;7.658;2023-09-18T09:38:57;98614.47;;;25.48;69.01
74798;BME280;63326;45.088;7.658;2023-09-18T09:41:27;98594.72;;;24.97;70.27
74798;BME280;63326;45.088;7.658;2023-09-18T09:43:55;98595.41;;;24.63;72.15
74798;BME280;63326;45.088;7.658;2023-09-18T09:46:23;98607.72;;;24.81;71.92
74798;BME280;63326;45.088;7.658;2023-09-18T09:49:04;98582.31;;;25.49;68.30
74798;BME280;63326;45.088;7.658;2023-09-18T09:51:32;98600.94;;;25.86;66.28
74798;BME280;63326;45.088;7.658;2023-09-18T09:54:01;98595.50;;;25.02;70.06
74798;BME280;63326;45.088;7.658;2023-09-18T09:56:49;98581.28;;;24.31;72.74
74798;BME280;63326;45.088;7.658;2023-09-18T09:59:18;98557.28;;;23.56;77.45
74798;BME280;63326;45.088;7.658;2023-09-18T10:01:46;98573.09;;;24.85;72.04
74798;BME280;63326;45.088;7.658;2023-09-18T10:04:17;98554.63;;;24.96;70.17
74798;BME280;63326;45.088;7.658;2023-09-18T10:06:47;98568.47;;;25.88;66.59
74798;BME280;63326;45.088;7.658;2023-09-18T10:09:19;98595.53;;;25.76;66.94
74798;BME280;63326;45.088;7.658;2023-09-18T10:11:51;98603.28;;;24.15;76.31
74798;BME280;63326;45.088;7.658;2023-09-18T10:14:20;98583.00;;;24.06;75.47
74798;BME280;63326;45.088;7.658;2023-09-18T10:16:54;98584.63;;;23.92;75.58
74798;BME280;63326;45.088;7.658;2023-09-18T10:19:38;98628.28;;;23.83;77.77
74798;BME280;63326;45.088;7.658;2023-09-18T10:24:47;98595.88;;;24.11;76.13
74798;BME280;63326;45.088;7.658;2023-09-18T10:27:18;98613.03;;;24.57;74.42
74798;BME280;63326;45.088;7.658;2023-09-18T10:29:49;98620.94;;;24.64;72.66
74798;BME280;63326;45.088;7.658;2023-09-18T10:32:18;98616.19;;;24.15;74.47
74798;BME280;63326;45.088;7.658;2023-09-18T10:34:48;98580.03;;;22.43;82.57
74798;BME280;63326;45.088;7.658;2023-09-18T10:37:15;98606.41;;;22.65;81.97
74798;BME280;63326;45.088;7.658;2023-09-18T10:39:42;98605.97;;;22.31;85.56
74798;BME280;63326;45.088;7.658;2023-09-18T10:42:12;98570.88;;;22.90;81.85
74798;BME280;63326;45.088;7.658;2023-09-18T10:44:40;98554.50;;;23.87;77.45
74798;BME280;63326;45.088;7.658;2023-09-18T10:47:10;98575.28;;;24.88;72.93
74798;BME280;63326;45.088;7.658;2023-09-18T10:49:40;98527.56;;;24.69;71.36
74798;BME280;63326;45.088;7.658;2023-09-18T10:52:13;98552.66;;;25.40;70.03
74798;BME280;63326;45.088;7.658;2023-09-18T10:54:44;98564.31;;;25.61;68.79
74798;BME280;63326;45.088;7.658;2023-09-18T10:57:11;98558.38;;;25.49;67.94
74798;BME280;63326;45.088;7.658;2023-09-18T10:59:45;98559.28;;;25.34;67.95
74798;BME280;63326;45.088;7.658;2023-09-18T11:02:16;98561.03;;;25.88;65.32
74798;BME280;63326;45.088;7.658;2023-09-18T11:04:44;98584.78;;;26.32;64.53
74798;BME280;63326;45.088;7.658;2023-09-18T11:07:21;98584.41;;;26.63;62.69
74798;BME280;63326;45.088;7.658;2023-09-18T11:09:49;98568.22;;;26.13;62.90
74798;BME280;63326;45.088;7.658;2023-09-18T11:12:17;98591.44;;;26.02;63.29
74798;BME280;63326;45.088;7.658;2023-09-18T11:17:39;98541.16;;;25.67;63.21
74798;BME280;63326;45.088;7.658;2023-09-18T11:20:18;98559.28;;;25.97;63.24
74798;BME280;63326;45.088;7.658;2023-09-18T11:25:44;98563.13;;;25.96;63.51
74798;BME280;63326;45.088;7.658;2023-09-18T11:28:22;98549.81;;;24.67;67.85
74798;BME280;63326;45.088;7.658;2023-09-18T11:30:57;98531.78;;;24.56;69.33
74798;BME280;63326;45.088;7.658;2023-09-18T11:33:40;98520.22;;;24.54;69.44
74798;BME280;63326;45.088;7.658;2023-09-18T11:36:28;98553.13;;;23.08;77.12
74798;BME280;63326;45.088;7.658;2023-09-18T11:38:59;98509.84;;;23.15;77.32
74798;BME280;63326;45.088;7.658;2023-09-18T11:41:33;98536.97;;;22.91;79.41
74798;BME280;63326;45.088;7.658;2023-09-18T11:46:54;98504.88;;;22.61;82.07
74798;BME280;63326;45.088;7.658;2023-09-18T11:49:23;98536.13;;;23.01;81.85
74798;BME280;63326;45.088;7.658;2023-09-18T11:51:54;98490.66;;;23.61;76.82
74798;BME280;63326;45.088;7.658;2023-09-18T11:54:21;98512.06;;;23.49;76.63
74798;BME280;63326;45.088;7.658;2023-09-18T11:56:48;98516.69;;;23.07;80.23
74798;BME280;63326;45.088;7.658;2023-09-18T11:59:15;98527.94;;;23.16;80.77
74798;BME280;63326;45.088;7.658;2023-09-18T12:01:43;98492.25;;;22.60;83.95
74798;BME280;63326;45.088;7.658;2023-09-18T12:04:13;98477.78;;;22.65;84.67
74798;BME280;63326;45.088;7.658;2023-09-18T12:06:41;98527.91;;;22.96;85.30
74798;BME280;63326;45.088;7.658;2023-09-18T12:09:08;98494.25;;;23.05;82.81
74798;BME280;63326;45.088;7.658;2023-09-18T12:11:36;98525.56;;;22.32;88.35
74798;BME280;63326;45.088;7.658;2023-09-18T12:14:03;98473.38;;;21.86;90.80
74798;BME280;63326;45.088;7.658;2023-09-18T12:16:43;98486.59;;;22.04;91.69
74798;BME280;63326;45.088;7.658;2023-09-18T12:19:16;98504.34;;;22.74;87.73
74798;BME280;63326;45.088;7.658;2023-09-18T12:21:46;98456.03;;;22.22;87.61
74798;BME280;63326;45.088;7.658;2023-09-18T12:24:26;98506.19;;;22.53;88.44
74798;BME280;63326;45.088;7.658;2023-09-18T12:26:54;98475.88;;;22.91;85.36
74798;BME280;63326;45.088;7.658;2023-09-18T12:29:21;98487.44;;;23.33;84.14
74798;BME280;63326;45.088;7.658;2023-09-18T12:31:49;98451.50;;;22.74;85.18
74798;BME280;63326;45.088;7.658;2023-09-18T12:34:21;98442.47;;;23.19;83.56
74798;BME280;63326;45.088;7.658;2023-09-18T12:36:50;98476.38;;;23.69;81.84
74798;BME280;63326;45.088;7.658;2023-09-18T12:39:17;98445.13;;;23.75;80.10
74798;BME280;63326;45.088;7.658;2023-09-18T12:41:48;98441.63;;;23.19;80.76
74798;BME280;63326;45.088;7.658;2023-09-18T12:44:15;98433.13;;;23.51;79.75
74798;BME280;63326;45.088;7.658;2023-09-18T12:46:43;98441.31;;;23.66;79.17
74798;BME280;63326;45.088;7.658;2023-09-18T12:49:21;98488.50;;;23.42;80.93
74798;BME280;63326;45.088;7.658;2023-09-18T12:52:00;98489.53;;;23.72;79.94
74798;BME280;63326;45.088;7.658;2023-09-18T12:54:56;98501.38;;;23.62;79.72
74798;BME280;63326;45.088;7.658;2023-09-18T12:57:25;98447.41;;;23.02;82.07
74798;BME280;63326;45.088;7.658;2023-09-18T12:59:52;98452.09;;;22.91;81.84
74798;BME280;63326;45.088;7.658;2023-09-18T13:02:20;98461.59;;;22.53;84.11
74798;BME280;63326;45.088;7.658;2023-09-18T13:04:52;98462.19;;;22.65;83.46
74798;BME280;63326;45.088;7.658;2023-09-18T13:07:19;98470.63;;;22.53;84.46
74798;BME280;63326;45.088;7.658;2023-09-18T13:10:01;98519.13;;;22.78;86.19
74798;BME280;63326;45.088;7.658;2023-09-18T13:12:43;98522.13;;;22.62;88.10
74798;BME280;63326;45.088;7.658;2023-09-18T13:15:12;98513.84;;;22.56;90.48